Time;durP1;ratioP1;P1;durP2;ratioP2;P2;SDS_P1;SDS_P2;PMS_P1;PMS_P2;Temp;Humidity;BMP_temperature;BMP_pressure;BME280_temperature;BME280_humidity;BME280_pressure;Samples;Min_cycle;Max_cycle;Signal;HPM_P1;HPM_P2
2024/01/13 00:01:54;;;;;;;8.10;1.40;;;4.40;99.90;;;;;;4993066;28;20221;-67
2024/01/13 00:04:21;;;;;;;2.80;1.20;;;3.40;99.90;;;;;;4958902;28;20692;-67
2024/01/13 00:06:49;;;;;;;2.67;1.80;;;3.20;99.90;;;;;;4996097;28;20437;-67
2024/01/13 00:09:16;;;;;;;3.63;1.73;;;3.30;99.90;;;;;;4998194;28;20225;-67
2024/01/13 00:11:43;;;;;;;3.80;1.80;;;3.20;99.90;;;;;;4988568;28;20213;-67
2024/01/13 00:14:10;;;;;;;2.50;1.37;;;3.10;99.90;;;;;;5001310;28;20289;-67
2024/01/13 00:16:37;;;;;;;2.53;1.53;;;3.20;99.90;;;;;;4984306;28;20267;-67
2024/01/13 00:19:04;;;;;;;3.73;1.80;;;3.60;99.90;;;;;;4966783;28;20210;-67
2024/01/13 00:21:30;;;;;;;4.57;1.80;;;3.30;99.90;;;;;;4993102;28;20691;-67
2024/01/13 00:23:59;;;;;;;1.13;1.03;;;3.10;99.90;;;;;;5000763;28;20959;-67
2024/01/13 00:26:26;;;;;;;3.80;1.63;;;3.20;99.90;;;;;;4996805;28;20203;-67
2024/01/13 00:28:52;;;;;;;1.57;1.30;;;3.10;99.90;;;;;;4986400;28;20679;-67
2024/01/13 00:31:19;;;;;;;4.53;1.40;;;3.10;99.90;;;;;;4989513;28;20582;-67
2024/01/13 00:33:46;;;;;;;3.87;1.27;;;3.20;99.90;;;;;;4956961;28;21341;-67
2024/01/13 00:36:13;;;;;;;7.50;1.83;;;3.10;99.90;;;;;;4999532;28;20325;-67
2024/01/13 00:38:40;;;;;;;3.50;1.20;;;3.00;99.90;;;;;;4996603;28;20234;-67
2024/01/13 00:41:08;;;;;;;4.40;1.30;;;3.10;99.90;;;;;;5003633;28;20194;-67
2024/01/13 00:43:35;;;;;;;4.30;1.20;;;3.10;99.90;;;;;;5000221;28;20199;-67
2024/01/13 00:46:02;;;;;;;6.33;1.60;;;3.20;99.90;;;;;;4990861;28;20198;-67
2024/01/13 00:48:29;;;;;;;4.30;1.50;;;3.10;99.90;;;;;;4984620;28;20197;-67
2024/01/13 00:50:56;;;;;;;1.57;1.47;;;3.10;99.90;;;;;;4976568;28;20315;-67
2024/01/13 00:53:23;;;;;;;1.77;1.47;;;3.10;99.90;;;;;;5003512;28;20973;-67
2024/01/13 00:55:51;;;;;;;0.97;0.90;;;3.00;99.90;;;;;;4996006;28;20828;-67
2024/01/13 00:58:19;;;;;;;2.20;1.47;;;3.00;99.90;;;;;;4997547;28;20202;-67
2024/01/13 01:00:46;;;;;;;4.87;1.53;;;3.00;99.90;;;;;;4998106;28;20670;-67
2024/01/13 01:03:13;;;;;;;1.80;1.10;;;3.10;99.90;;;;;;4990266;28;20237;-67
2024/01/13 01:05:40;;;;;;;3.07;1.37;;;;;;;;;;4965673;28;20209;-67
2024/01/13 01:08:07;;;;;;;1.60;1.03;;;3.10;99.90;;;;;;5000051;28;20194;-67
2024/01/13 01:10:34;;;;;;;7.83;1.47;;;3.00;99.90;;;;;;4995094;28;20210;-68
2024/01/13 01:13:01;;;;;;;2.47;1.73;;;3.10;99.90;;;;;;4997918;28;20317;-67
2024/01/13 01:15:30;;;;;;;6.37;1.73;;;3.00;99.90;;;;;;4998800;28;20203;-67
2024/01/13 01:17:56;;;;;;;1.60;1.27;;;2.90;99.90;;;;;;4985875;28;21386;-67
2024/01/13 01:20:24;;;;;;;4.17;1.63;;;2.90;99.90;;;;;;4968678;28;20434;-67
2024/01/13 01:22:51;;;;;;;7.00;1.80;;;3.00;99.90;;;;;;5000906;28;20243;-67
2024/01/13 01:25:18;;;;;;;2.23;1.23;;;3.00;99.90;;;;;;5004493;28;20226;-67
2024/01/13 01:27:44;;;;;;;3.70;1.33;;;2.10;99.90;;;;;;4991104;28;20300;-67
2024/01/13 01:30:13;;;;;;;5.70;1.67;;;3.10;99.90;;;;;;5006664;28;20204;-67
2024/01/13 01:32:41;;;;;;;3.77;1.93;;;3.00;99.90;;;;;;4998213;28;20218;-67
2024/01/13 01:35:08;;;;;;;2.13;1.43;;;3.10;99.90;;;;;;4989341;28;20202;-67
2024/01/13 01:37:35;;;;;;;2.60;1.73;;;3.00;99.90;;;;;;4960664;28;20210;-67
2024/01/13 01:40:04;;;;;;;2.50;1.80;;;3.00;99.90;;;;;;5001152;28;20340;-67
2024/01/13 01:42:31;;;;;;;4.40;2.17;;;3.00;99.90;;;;;;4995810;28;20225;-67
2024/01/13 01:44:58;;;;;;;6.83;1.60;;;3.00;99.90;;;;;;4992754;28;20203;-67
2024/01/13 01:47:26;;;;;;;2.50;1.40;;;3.00;99.90;;;;;;4999051;28;20306;-67
2024/01/13 01:49:55;;;;;;;4.77;1.60;;;3.10;99.90;;;;;;4985825;28;20518;-67
2024/01/13 01:52:22;;;;;;;1.33;1.10;;;3.10;99.90;;;;;;4967799;28;20198;-67
2024/01/13 01:54:49;;;;;;;1.57;1.40;;;3.00;99.90;;;;;;4997961;28;20614;-67
2024/01/13 01:57:19;;;;;;;1.83;1.53;;;2.80;99.90;;;;;;4999360;28;20194;-67
2024/01/13 01:59:46;;;;;;;3.80;1.37;;;2.30;99.90;;;;;;4997271;28;20204;-67
2024/01/13 02:02:13;;;;;;;1.70;1.37;;;3.00;99.90;;;;;;5002113;28;20564;-67
2024/01/13 02:04:40;;;;;;;4.53;1.63;;;3.00;99.90;;;;;;4991166;28;20191;-67
2024/01/13 02:07:09;;;;;;;1.90;1.70;;;2.90;99.90;;;;;;4964736;28;20221;-67
2024/01/13 02:09:36;;;;;;;2.03;1.40;;;-0.30;99.90;;;;;;5002271;28;20202;-67
2024/01/13 02:12:04;;;;;;;1.60;1.30;;;3.10;99.90;;;;;;5001049;28;20317;-67
2024/01/13 02:14:31;;;;;;;1.40;1.20;;;2.80;99.90;;;;;;4995176;28;20735;-67
2024/01/13 02:16:59;;;;;;;2.77;1.37;;;2.90;99.90;;;;;;4995656;28;20502;-67
2024/01/13 02:19:32;;;;;;;4.77;1.77;;;2.90;99.90;;;;;;5000213;28;20376;-67
2024/01/13 02:22:00;;;;;;;1.40;1.30;;;3.00;99.90;;;;;;4956892;28;20213;-67
2024/01/13 02:24:27;;;;;;;3.70;1.60;;;3.00;99.90;;;;;;4996194;28;21836;-67
2024/01/13 02:26:54;;;;;;;2.00;1.40;;;3.00;99.90;;;;;;4982381;28;20213;-67
2024/01/13 02:29:20;;;;;;;6.73;1.63;;;3.00;99.90;;;;;;4997021;28;20226;-67
2024/01/13 02:31:47;;;;;;;1.73;1.37;;;3.00;99.90;;;;;;4995439;28;20213;-67
2024/01/13 02:34:14;;;;;;;5.93;1.20;;;3.00;99.90;;;;;;5002969;28;20229;-67
2024/01/13 02:36:41;;;;;;;3.80;1.20;;;3.10;99.90;;;;;;4986149;28;20553;-67
2024/01/13 02:39:09;;;;;;;3.70;1.90;;;3.10;99.90;;;;;;4962662;28;20365;-67
2024/01/13 02:41:36;;;;;;;5.07;1.77;;;3.00;99.90;;;;;;4997048;28;20813;-67
2024/01/13 02:44:03;;;;;;;2.00;1.00;;;2.90;99.90;;;;;;5004579;28;20580;-67
2024/01/13 02:46:30;;;;;;;1.43;1.00;;;3.00;99.90;;;;;;4998955;28;20279;-67
2024/01/13 02:48:59;;;;;;;1.73;1.37;;;3.00;99.90;;;;;;4993804;28;20708;-67
2024/01/13 02:51:27;;;;;;;2.17;1.63;;;3.00;99.90;;;;;;4999431;28;20212;-67
2024/01/13 02:53:54;;;;;;;1.17;1.07;;;2.90;99.90;;;;;;4965434;28;20226;-67
2024/01/13 02:56:23;;;;;;;5.17;1.60;;;2.90;99.90;;;;;;5001944;28;20244;-67
2024/01/13 02:58:50;;;;;;;1.47;1.23;;;3.00;99.90;;;;;;4990676;28;20199;-67
2024/01/13 03:01:17;;;;;;;5.57;1.47;;;2.90;99.90;;;;;;4997877;28;20202;-67
2024/01/13 03:03:44;;;;;;;2.23;1.60;;;3.10;99.90;;;;;;4994053;28;20477;-67
2024/01/13 03:06:11;;;;;;;1.67;1.20;;;3.10;99.90;;;;;;4998420;28;20198;-67
2024/01/13 03:08:38;;;;;;;1.60;1.20;;;2.90;99.90;;;;;;4958927;28;21599;-67
2024/01/13 03:11:05;;;;;;;3.47;1.20;;;2.90;99.90;;;;;;5002906;28;20584;-67
2024/01/13 03:13:33;;;;;;;2.00;1.43;;;2.80;99.90;;;;;;4995701;28;20326;-67
2024/01/13 03:16:00;;;;;;;1.33;1.23;;;3.10;99.90;;;;;;5002609;28;20314;-67
2024/01/13 03:18:28;;;;;;;4.90;1.43;;;2.90;99.90;;;;;;4992119;28;20582;-67
2024/01/13 03:20:54;;;;;;;1.57;1.20;;;2.90;99.90;;;;;;5001388;28;20501;-67
2024/01/13 03:23:21;;;;;;;10.70;1.60;;;3.00;99.90;;;;;;4999528;28;20209;-67
2024/01/13 03:25:48;;;;;;;2.17;1.30;;;2.90;99.90;;;;;;4955678;28;20206;-67
2024/01/13 03:28:15;;;;;;;1.47;1.27;;;3.00;99.90;;;;;;4989236;28;20208;-67
2024/01/13 03:30:43;;;;;;;2.30;0.93;;;3.00;99.90;;;;;;4992544;28;20199;-67
2024/01/13 03:33:11;;;;;;;5.53;1.13;;;;;;;;;;4989671;28;20225;-67
2024/01/13 03:35:37;;;;;;;1.20;1.10;;;2.90;99.90;;;;;;4998275;28;20662;-67
2024/01/13 03:38:05;;;;;;;4.43;1.33;;;3.00;99.90;;;;;;4999097;28;20862;-67
2024/01/13 03:40:31;;;;;;;1.47;1.37;;;2.90;99.90;;;;;;4958813;28;20702;-67
2024/01/13 03:42:58;;;;;;;1.37;1.27;;;2.90;99.90;;;;;;4995647;28;20293;-67
2024/01/13 03:45:25;;;;;;;2.33;1.60;;;2.90;99.90;;;;;;4997351;28;20194;-67
2024/01/13 03:47:54;;;;;;;3.33;2.00;;;3.00;99.90;;;;;;4995844;28;20202;-67
2024/01/13 03:50:21;;;;;;;3.00;1.70;;;3.00;99.90;;;;;;4996112;28;20195;-67
2024/01/13 03:52:48;;;;;;;1.47;1.30;;;2.90;99.90;;;;;;4998821;28;20281;-67
2024/01/13 03:55:15;;;;;;;1.50;1.40;;;5.00;99.90;;;;;;4965367;28;20659;-67
2024/01/13 03:57:42;;;;;;;1.60;1.50;;;3.10;99.90;;;;;;4995903;28;20210;-67
2024/01/13 04:00:10;;;;;;;2.10;1.67;;;2.90;99.90;;;;;;4996009;28;20200;-67
2024/01/13 04:02:37;;;;;;;1.97;1.57;;;2.50;99.90;;;;;;5001868;28;20224;-68
2024/01/13 04:05:05;;;;;;;3.97;1.97;;;2.90;99.90;;;;;;5001665;28;20640;-67
2024/01/13 04:07:32;;;;;;;4.07;1.70;;;3.00;99.90;;;;;;4994697;28;21211;-67
2024/01/13 04:09:59;;;;;;;1.33;1.23;;;3.10;99.90;;;;;;4960158;28;20231;-67
2024/01/13 04:12:26;;;;;;;2.50;1.33;;;3.10;99.90;;;;;;5005122;28;20202;-67
2024/01/13 04:14:53;;;;;;;1.80;1.40;;;2.80;99.90;;;;;;4998110;28;20324;-67
2024/01/13 04:17:20;;;;;;;3.67;1.53;;;3.10;99.90;;;;;;5000500;28;20197;-67
2024/01/13 04:19:47;;;;;;;3.83;1.67;;;2.90;99.90;;;;;;4998959;28;20198;-67
2024/01/13 04:22:15;;;;;;;1.30;1.20;;;3.00;99.90;;;;;;5003093;28;20220;-67
2024/01/13 04:24:42;;;;;;;1.23;1.00;;;3.10;99.90;;;;;;4998610;28;20208;-67
2024/01/13 04:27:08;;;;;;;1.47;1.10;;;3.00;99.90;;;;;;4963599;28;20220;-67
2024/01/13 04:29:35;;;;;;;3.83;1.17;;;3.10;99.90;;;;;;4998588;28;20202;-67
2024/01/13 04:32:02;;;;;;;1.60;1.50;;;3.10;99.90;;;;;;4993459;28;20198;-67
2024/01/13 04:34:29;;;;;;;1.13;1.03;;;3.10;99.90;;;;;;5002648;28;20233;-67
2024/01/13 04:36:56;;;;;;;1.83;1.07;;;3.00;99.90;;;;;;4988796;28;20334;-67
2024/01/13 04:39:24;;;;;;;1.27;1.17;;;3.10;99.90;;;;;;4997947;28;21604;-67
2024/01/13 04:41:51;;;;;;;1.20;1.10;;;3.30;99.90;;;;;;4944151;28;20416;-67
2024/01/13 04:44:18;;;;;;;1.20;1.10;;;2.70;99.90;;;;;;4997270;28;20577;-67
2024/01/13 04:46:45;;;;;;;1.10;1.00;;;3.10;99.90;;;;;;4986936;28;20766;-67
2024/01/13 04:49:11;;;;;;;1.60;1.33;;;3.10;99.90;;;;;;4996497;28;20206;-67
2024/01/13 04:51:38;;;;;;;1.50;1.30;;;3.60;99.90;;;;;;4997504;28;20199;-67
2024/01/13 04:54:05;;;;;;;0.83;0.83;;;4.60;99.90;;;;;;5002184;28;20538;-67
2024/01/13 04:56:34;;;;;;;1.53;1.37;;;3.30;99.90;;;;;;4991124;28;20565;-67
2024/01/13 04:59:01;;;;;;;4.43;1.40;;;3.10;99.90;;;;;;4976367;28;20306;-67
2024/01/13 05:01:28;;;;;;;1.70;1.20;;;3.00;99.90;;;;;;5002187;28;20205;-67
2024/01/13 05:03:55;;;;;;;1.30;1.10;;;3.10;99.90;;;;;;4996244;28;20327;-67
2024/01/13 05:06:22;;;;;;;1.43;1.17;;;2.90;99.90;;;;;;5004066;28;20317;-67
2024/01/13 05:08:49;;;;;;;1.10;1.00;;;3.20;99.90;;;;;;5001243;28;20337;-67
2024/01/13 05:11:17;;;;;;;1.47;1.13;;;3.30;99.90;;;;;;4999297;28;20199;-67
2024/01/13 05:13:45;;;;;;;5.07;1.00;;;3.20;99.90;;;;;;4969340;28;20603;-67
2024/01/13 05:16:12;;;;;;;1.00;0.90;;;3.10;99.90;;;;;;4998319;28;20244;-67
2024/01/13 05:18:39;;;;;;;1.60;1.13;;;3.10;99.90;;;;;;4995841;28;20209;-67
2024/01/13 05:21:06;;;;;;;1.80;1.10;;;3.00;99.90;;;;;;4996702;28;20285;-67
2024/01/13 05:23:33;;;;;;;2.50;1.33;;;3.10;99.90;;;;;;5000947;28;20212;-67
2024/01/13 05:26:00;;;;;;;2.03;1.07;;;3.20;99.90;;;;;;4997541;28;20205;-67
2024/01/13 05:28:27;;;;;;;1.70;1.27;;;3.00;99.90;;;;;;4967879;28;22013;-67
2024/01/13 05:30:55;;;;;;;3.20;1.10;;;3.00;99.90;;;;;;5000486;28;20214;-67
2024/01/13 05:33:22;;;;;;;1.37;1.10;;;3.10;99.90;;;;;;4996629;28;20417;-67
2024/01/13 05:35:49;;;;;;;1.43;1.20;;;3.00;99.90;;;;;;4986402;28;21661;-67
2024/01/13 05:38:17;;;;;;;1.40;1.27;;;3.00;99.90;;;;;;4995999;28;20334;-67
2024/01/13 05:40:44;;;;;;;1.47;1.37;;;3.10;99.90;;;;;;5004188;28;20667;-67
2024/01/13 05:43:11;;;;;;;2.23;1.30;;;3.10;99.90;;;;;;4996331;28;21096;-67
2024/01/13 05:45:38;;;;;;;2.00;1.20;;;3.10;99.90;;;;;;4965519;28;20746;-67
2024/01/13 05:48:06;;;;;;;2.57;1.47;;;3.20;99.90;;;;;;4994515;28;20195;-67
2024/01/13 05:50:34;;;;;;;1.67;1.53;;;3.00;99.90;;;;;;4998196;28;20220;-67
2024/01/13 05:53:01;;;;;;;1.23;1.10;;;3.30;99.90;;;;;;4995242;28;20639;-67
2024/01/13 05:55:27;;;;;;;1.20;1.10;;;3.10;99.90;;;;;;4998870;28;20801;-67
2024/01/13 05:57:55;;;;;;;1.20;1.10;;;;;;;;;;4995021;28;21024;-67
2024/01/13 06:00:22;;;;;;;3.17;1.40;;;3.20;99.90;;;;;;4957879;28;20626;-67
2024/01/13 06:02:49;;;;;;;4.00;1.57;;;3.00;99.90;;;;;;4995506;28;20240;-67
2024/01/13 06:05:17;;;;;;;1.93;1.47;;;3.00;99.90;;;;;;4993393;28;20202;-67
2024/01/13 06:07:44;;;;;;;4.57;1.83;;;3.10;99.90;;;;;;4997489;28;20201;-67
2024/01/13 06:10:12;;;;;;;6.27;1.83;;;3.00;99.90;;;;;;4997766;28;20198;-67
2024/01/13 06:12:39;;;;;;;2.23;1.27;;;;;;;;;;5003466;28;20675;-67
2024/01/13 06:15:08;;;;;;;4.00;1.53;;;3.20;99.90;;;;;;4964303;28;20226;-67
2024/01/13 06:17:34;;;;;;;1.20;1.10;;;3.10;99.90;;;;;;4996204;28;24192;-67
2024/01/13 06:20:01;;;;;;;0.80;0.80;;;3.00;99.90;;;;;;4997370;28;20217;-67
2024/01/13 06:22:29;;;;;;;1.60;1.13;;;3.00;99.90;;;;;;4989916;28;20202;-67
2024/01/13 06:24:56;;;;;;;1.67;1.17;;;3.20;99.90;;;;;;4999372;28;20454;-67
2024/01/13 06:27:23;;;;;;;1.13;1.07;;;3.00;99.90;;;;;;5001394;28;20667;-67
2024/01/13 06:29:50;;;;;;;1.50;1.00;;;2.90;99.90;;;;;;4997640;28;20714;-67
2024/01/13 06:32:17;;;;;;;1.30;1.10;;;3.10;99.90;;;;;;4967830;28;20227;-67
2024/01/13 06:34:44;;;;;;;2.47;1.30;;;3.10;99.90;;;;;;5001749;28;20229;-67
2024/01/13 06:37:11;;;;;;;3.23;1.23;;;3.00;99.90;;;;;;4986575;28;20202;-67
2024/01/13 06:39:39;;;;;;;1.30;1.17;;;3.00;99.90;;;;;;4983383;28;20264;-67
2024/01/13 06:42:08;;;;;;;1.53;1.27;;;3.00;99.90;;;;;;4999077;28;20241;-67
2024/01/13 06:44:35;;;;;;;1.40;0.90;;;3.00;99.90;;;;;;4989916;28;20193;-67
2024/01/13 06:47:03;;;;;;;3.90;1.20;;;3.10;99.90;;;;;;4955328;28;20348;-67
2024/01/13 06:49:30;;;;;;;0.90;0.90;;;3.10;99.90;;;;;;4994675;28;20191;-67
2024/01/13 06:51:57;;;;;;;3.23;1.23;;;3.00;99.90;;;;;;4996050;28;20210;-67
2024/01/13 06:54:24;;;;;;;1.30;1.20;;;3.00;99.90;;;;;;4991996;28;20234;-67
2024/01/13 06:56:52;;;;;;;1.07;0.97;;;3.00;99.90;;;;;;5001261;28;20205;-67
2024/01/13 06:59:20;;;;;;;1.47;1.30;;;3.00;99.90;;;;;;5002493;28;20209;-67
2024/01/13 07:01:48;;;;;;;1.13;1.03;;;3.00;99.90;;;;;;4951625;28;20210;-67
2024/01/13 07:04:15;;;;;;;1.17;0.90;;;3.00;99.90;;;;;;5004611;28;20234;-66
2024/01/13 07:06:42;;;;;;;1.30;1.10;;;3.70;99.90;;;;;;5001694;28;20424;-67
2024/01/13 07:09:09;;;;;;;0.93;0.83;;;3.10;99.90;;;;;;4998407;28;20208;-67
2024/01/13 07:11:36;;;;;;;1.47;1.10;;;3.20;99.90;;;;;;5000044;28;20215;-67
2024/01/13 07:14:04;;;;;;;2.57;1.20;;;3.10;99.90;;;;;;4998785;28;20202;-67
2024/01/13 07:16:32;;;;;;;2.40;1.50;;;3.00;99.90;;;;;;4966678;28;27606;-68
2024/01/13 07:18:59;;;;;;;2.57;1.37;;;3.10;99.90;;;;;;5002211;28;20205;-67
2024/01/13 07:21:26;;;;;;;1.27;1.00;;;3.60;99.90;;;;;;5004286;28;20197;-67
2024/01/13 07:23:53;;;;;;;5.03;2.50;;;3.00;99.90;;;;;;4992042;28;20793;-67
2024/01/13 07:26:20;;;;;;;6.20;2.10;;;3.10;99.90;;;;;;4998333;28;20650;-67
2024/01/13 07:28:48;;;;;;;2.73;1.77;;;3.10;99.90;;;;;;4993886;28;20404;-67
2024/01/13 07:31:16;;;;;;;1.63;1.13;;;3.10;99.90;;;;;;4995155;28;20268;-67
2024/01/13 07:33:43;;;;;;;1.83;1.40;;;;;;;;;;4961530;28;20863;-67
2024/01/13 07:36:10;;;;;;;1.00;1.00;;;3.10;99.90;;;;;;5000674;28;20715;-67
2024/01/13 07:38:37;;;;;;;1.73;1.13;;;3.20;99.90;;;;;;4992681;28;20945;-67
2024/01/13 07:41:04;;;;;;;1.53;1.00;;;3.20;99.90;;;;;;4998051;28;20204;-67
2024/01/13 07:43:31;;;;;;;1.80;1.17;;;3.20;99.90;;;;;;4998872;28;20195;-67
2024/01/13 07:45:59;;;;;;;1.83;1.40;;;3.10;99.90;;;;;;4988816;28;20212;-67
2024/01/13 07:48:27;;;;;;;3.03;1.53;;;3.20;99.90;;;;;;4963462;28;20228;-67
2024/01/13 07:50:54;;;;;;;1.47;1.17;;;3.10;99.90;;;;;;5001811;28;20776;-67
2024/01/13 07:53:21;;;;;;;1.43;1.33;;;3.10;99.90;;;;;;5002645;28;20198;-67
2024/01/13 07:55:48;;;;;;;2.53;1.50;;;3.00;99.90;;;;;;5002370;28;20244;-67
2024/01/13 07:58:15;;;;;;;1.30;1.13;;;3.20;99.90;;;;;;5003685;28;20203;-67
2024/01/13 08:00:41;;;;;;;2.63;1.13;;;3.20;99.90;;;;;;4990917;28;20318;-67
2024/01/13 08:03:08;;;;;;;3.20;1.37;;;3.00;99.90;;;;;;4962683;28;20287;-68
2024/01/13 08:05:36;;;;;;;1.13;0.97;;;3.20;99.90;;;;;;4992298;28;20318;-67
2024/01/13 08:08:06;;;;;;;2.43;1.40;;;3.10;99.90;;;;;;4981621;28;21341;-67
2024/01/13 08:10:36;;;;;;;1.87;1.60;;;3.20;99.90;;;;;;4999686;28;20706;-67
2024/01/13 08:13:03;;;;;;;1.80;1.30;;;3.10;99.90;;;;;;5003893;28;22049;-67
2024/01/13 08:15:30;;;;;;;0.97;0.87;;;3.10;99.90;;;;;;4994852;28;20625;-67
2024/01/13 08:17:57;;;;;;;1.17;0.80;;;3.30;99.90;;;;;;4994328;28;20268;-67
2024/01/13 08:20:24;;;;;;;1.03;0.93;;;3.30;99.90;;;;;;4964632;28;20412;-67
2024/01/13 08:22:53;;;;;;;2.63;1.27;;;3.20;99.90;;;;;;4983568;28;20321;-67
2024/01/13 08:25:19;;;;;;;1.30;1.10;;;3.30;99.90;;;;;;4994601;28;20209;-67
2024/01/13 08:27:46;;;;;;;2.67;1.33;;;2.60;99.90;;;;;;4995820;28;20203;-67
2024/01/13 08:30:14;;;;;;;2.00;1.40;;;3.10;99.90;;;;;;4992429;28;20229;-67
2024/01/13 08:32:40;;;;;;;1.90;1.27;;;3.10;99.90;;;;;;4996063;28;20367;-67
2024/01/13 08:35:08;;;;;;;1.40;1.20;;;3.10;99.90;;;;;;4956862;28;20572;-67
2024/01/13 08:37:35;;;;;;;1.23;1.13;;;3.10;99.90;;;;;;4990832;28;20213;-67
2024/01/13 08:40:04;;;;;;;2.00;1.33;;;3.30;99.90;;;;;;4986846;28;20221;-68
2024/01/13 08:42:31;;;;;;;1.27;1.17;;;3.20;99.90;;;;;;4999277;28;20313;-67
2024/01/13 08:44:58;;;;;;;1.20;1.10;;;3.20;99.90;;;;;;4990040;28;20222;-67
2024/01/13 08:47:25;;;;;;;1.17;0.97;;;3.20;99.90;;;;;;4989531;28;20230;-67
2024/01/13 08:49:52;;;;;;;1.00;0.90;;;3.70;99.90;;;;;;4961311;28;20368;-67
2024/01/13 08:52:19;;;;;;;2.50;1.50;;;4.00;99.90;;;;;;4990823;28;20215;-67
2024/01/13 08:54:46;;;;;;;1.10;1.00;;;4.10;99.90;;;;;;4982954;28;20230;-67
2024/01/13 08:57:14;;;;;;;0.80;0.80;;;4.10;99.90;;;;;;4997286;28;20313;-67
2024/01/13 08:59:41;;;;;;;0.90;0.90;;;4.00;99.90;;;;;;4998196;28;20250;-67
2024/01/13 09:02:08;;;;;;;1.07;0.83;;;3.70;99.90;;;;;;4977292;28;20512;-67
2024/01/13 09:04:35;;;;;;;0.80;0.80;;;;;;;;;;4987280;28;20286;-67
2024/01/13 09:07:02;;;;;;;3.47;1.17;;;3.40;99.90;;;;;;4952387;28;20211;-67
2024/01/13 09:09:29;;;;;;;0.87;0.60;;;;;;;;;;4960254;28;20209;-66
2024/01/13 09:11:57;;;;;;;0.70;0.70;;;2.90;99.90;;;;;;4986462;28;20338;-67
2024/01/13 09:14:25;;;;;;;0.80;0.80;;;3.50;99.90;;;;;;4980019;28;20206;-67
2024/01/13 09:16:52;;;;;;;1.10;1.00;;;3.50;99.90;;;;;;4998330;28;20768;-67
2024/01/13 09:19:19;;;;;;;1.93;0.90;;;3.50;99.90;;;;;;4996485;28;21031;-67
2024/01/13 09:21:45;;;;;;;2.33;0.70;;;3.50;99.90;;;;;;4960142;28;20722;-66
2024/01/13 09:24:12;;;;;;;1.00;0.70;;;3.40;99.90;;;;;;4977282;28;20233;-68
2024/01/13 09:26:41;;;;;;;1.60;0.90;;;3.40;99.90;;;;;;4975234;28;20555;-68
2024/01/13 09:29:08;;;;;;;0.70;0.70;;;3.50;99.90;;;;;;4990575;28;20205;-67
2024/01/13 09:31:36;;;;;;;0.90;0.80;;;3.50;99.90;;;;;;4977890;28;20721;-67
2024/01/13 09:34:03;;;;;;;1.00;0.90;;;3.60;99.90;;;;;;4997559;28;20205;-67
2024/01/13 09:36:30;;;;;;;1.27;0.77;;;;;;;;;;4960765;28;20929;-67
2024/01/13 09:38:57;;;;;;;1.10;1.00;;;3.60;99.90;;;;;;4988533;28;20233;-67
2024/01/13 09:41:23;;;;;;;0.77;0.77;;;4.10;99.90;;;;;;4970980;28;20206;-67
2024/01/13 09:44:00;;;;;;;0.87;0.80;;;3.60;99.90;;;;;;4991476;28;20225;-68
2024/01/13 09:46:27;;;;;;;0.83;0.70;;;3.60;99.90;;;;;;4969596;28;20949;-67
2024/01/13 09:49:08;;;;;;;1.27;0.90;;;3.60;99.90;;;;;;4982350;28;20206;-67
2024/01/13 09:51:37;;;;;;;0.80;0.67;;;3.50;99.90;;;;;;4994234;28;20341;-67
2024/01/13 09:54:10;;;;;;;1.10;0.80;;;3.40;99.90;;;;;;4963917;28;20363;-66
2024/01/13 09:56:43;;;;;;;1.27;1.00;;;3.60;99.90;;;;;;4974696;28;20230;-67
2024/01/13 09:59:10;;;;;;;1.63;1.30;;;3.60;99.90;;;;;;4981766;28;20203;-67
2024/01/13 10:01:37;;;;;;;2.40;1.67;;;3.20;99.90;;;;;;4971504;28;20554;-67
2024/01/13 10:04:07;;;;;;;1.63;1.53;;;3.40;99.90;;;;;;4990276;28;20293;-67
2024/01/13 10:06:35;;;;;;;3.17;2.60;;;3.60;99.90;;;;;;4995561;28;20359;-67
2024/01/13 10:09:02;;;;;;;4.43;2.60;;;3.70;99.90;;;;;;4970986;28;20210;-67
2024/01/13 10:11:30;;;;;;;5.43;2.80;;;3.60;99.90;;;;;;4981102;28;20727;-67
2024/01/13 10:14:08;;;;;;;6.57;3.73;;;3.50;99.90;;;;;;4969909;28;20602;-67
2024/01/13 10:16:36;;;;;;;6.77;3.47;;;3.60;99.90;;;;;;4981587;28;20222;-67
2024/01/13 10:19:06;;;;;;;8.63;4.67;;;3.60;99.90;;;;;;4994359;28;20423;-67
2024/01/13 10:21:34;;;;;;;8.40;5.10;;;3.60;99.90;;;;;;4983669;28;20201;-67
2024/01/13 10:24:01;;;;;;;7.17;4.83;;;5.00;99.90;;;;;;4959769;28;20936;-67
2024/01/13 10:29:10;;;;;;;13.73;6.37;;;3.70;99.90;;;;;;4985194;28;20202;-67
2024/01/13 10:31:37;;;;;;;10.10;6.63;;;3.70;99.90;;;;;;4990822;28;20226;-67
2024/01/13 10:34:10;;;;;;;12.20;6.60;;;3.60;99.90;;;;;;4987203;28;20418;-67
2024/01/13 10:36:38;;;;;;;11.97;7.20;;;3.70;99.90;;;;;;4983643;28;20754;-66
2024/01/13 10:41:51;;;;;;;14.73;7.63;;;3.80;99.90;;;;;;4942908;28;20210;-66
2024/01/13 10:44:19;;;;;;;15.20;8.33;;;3.70;99.90;;;;;;4986518;28;20595;-67
2024/01/13 10:46:50;;;;;;;17.80;8.03;;;5.00;99.90;;;;;;4987970;28;20210;-67
2024/01/13 10:49:29;;;;;;;13.77;8.67;;;3.80;99.90;;;;;;4978131;28;20205;-67
2024/01/13 10:51:58;;;;;;;18.50;9.13;;;3.80;99.90;;;;;;4988342;28;20328;-67
2024/01/13 10:54:26;;;;;;;15.80;8.47;;;3.70;99.90;;;;;;4987378;28;20221;-67
2024/01/13 10:56:54;;;;;;;27.27;8.30;;;3.80;99.90;;;;;;4949257;28;20236;-67
2024/01/13 10:59:21;;;;;;;16.40;9.07;;;3.80;99.90;;;;;;4987718;28;20631;-67
2024/01/13 11:01:49;;;;;;;19.83;9.23;;;3.70;99.90;;;;;;5003383;28;20225;-67
2024/01/13 11:04:17;;;;;;;21.10;10.63;;;3.90;99.90;;;;;;4984708;28;20610;-67
2024/01/13 11:06:44;;;;;;;19.30;10.07;;;3.70;99.90;;;;;;5002864;28;20649;-67
2024/01/13 11:09:13;;;;;;;15.77;9.00;;;4.20;99.90;;;;;;4980981;28;20211;-67
2024/01/13 11:11:44;;;;;;;18.73;9.90;;;3.70;99.90;;;;;;4964053;28;20218;-67
2024/01/13 11:14:14;;;;;;;17.50;9.63;;;3.80;99.90;;;;;;4980712;28;21566;-67
2024/01/13 11:16:44;;;;;;;16.00;9.07;;;3.80;99.90;;;;;;5001852;28;20234;-67
2024/01/13 11:19:12;;;;;;;16.97;9.10;;;3.90;99.90;;;;;;4961267;28;21080;-67
2024/01/13 11:21:48;;;;;;;20.10;10.27;;;4.40;99.90;;;;;;4984418;28;20226;-67
2024/01/13 11:26:57;;;;;;;20.53;9.13;;;;;;;;;;4942766;28;21175;-67
2024/01/13 11:29:26;;;;;;;18.77;9.73;;;4.10;99.90;;;;;;4966160;28;20222;-67
2024/01/13 11:31:56;;;;;;;17.13;10.37;;;4.00;99.90;;;;;;4995807;28;20198;-67
2024/01/13 11:34:23;;;;;;;21.83;11.37;;;4.60;99.90;;;;;;4984993;28;20237;-67
2024/01/13 11:36:56;;;;;;;18.40;9.50;;;4.10;99.90;;;;;;4996980;28;20424;-67
2024/01/13 11:39:24;;;;;;;19.50;10.70;;;4.10;99.90;;;;;;4993749;28;20247;-67
2024/01/13 11:41:54;;;;;;;16.10;9.70;;;4.20;99.90;;;;;;4982595;28;20309;-67
2024/01/13 11:44:22;;;;;;;18.70;9.57;;;4.10;99.90;;;;;;4946739;28;20248;-67
2024/01/13 11:46:58;;;;;;;21.90;9.93;;;4.10;99.90;;;;;;4979776;28;20322;-67
2024/01/13 11:49:31;;;;;;;15.83;9.60;;;4.10;99.90;;;;;;4976756;28;20206;-67
2024/01/13 11:52:01;;;;;;;19.07;10.33;;;4.10;99.90;;;;;;4998539;28;20538;-67
2024/01/13 11:54:28;;;;;;;19.00;9.73;;;4.10;99.90;;;;;;5001728;28;20208;-67
2024/01/13 11:56:57;;;;;;;18.53;8.80;;;4.30;99.90;;;;;;4977951;28;20312;-67
2024/01/13 11:59:24;;;;;;;14.10;8.60;;;4.20;99.90;;;;;;4942174;28;20592;-67
2024/01/13 12:01:52;;;;;;;16.30;9.93;;;4.10;99.90;;;;;;4970826;28;20218;-67
2024/01/13 12:04:19;;;;;;;21.50;9.50;;;4.20;99.90;;;;;;4984376;28;20195;-67
2024/01/13 12:06:48;;;;;;;16.27;9.63;;;4.10;99.90;;;;;;4982309;28;20366;-67
2024/01/13 12:09:19;;;;;;;18.03;8.97;;;4.10;99.90;;;;;;4989487;28;20217;-67
2024/01/13 12:14:34;;;;;;;16.20;9.23;;;4.10;99.90;;;;;;4948442;28;20218;-67
2024/01/13 12:17:03;;;;;;;20.80;9.00;;;4.10;99.90;;;;;;4965043;28;20702;-67
2024/01/13 12:19:32;;;;;;;15.57;9.17;;;4.20;99.90;;;;;;4993256;28;20218;-67
2024/01/13 12:21:59;;;;;;;17.67;9.47;;;4.60;99.90;;;;;;4978772;28;20203;-67
2024/01/13 12:24:28;;;;;;;15.47;8.97;;;4.10;99.90;;;;;;4987430;28;20227;-67
2024/01/13 12:26:55;;;;;;;14.50;8.70;;;4.10;99.90;;;;;;4970046;28;20723;-67
2024/01/13 12:29:25;;;;;;;18.67;9.13;;;4.20;99.90;;;;;;4936786;28;21017;-67
2024/01/13 12:31:54;;;;;;;13.73;8.57;;;4.20;99.90;;;;;;4971867;28;20774;-67
2024/01/13 12:34:21;;;;;;;18.03;9.30;;;4.20;99.90;;;;;;4979942;28;20223;-67
2024/01/13 12:36:48;;;;;;;22.40;8.77;;;4.20;99.90;;;;;;4986540;28;20223;-67
2024/01/13 12:39:15;;;;;;;19.23;9.17;;;4.00;99.90;;;;;;4992498;28;20260;-67
2024/01/13 12:41:44;;;;;;;22.57;8.93;;;4.20;99.90;;;;;;4992193;28;20363;-67
2024/01/13 12:44:11;;;;;;;17.53;8.93;;;4.30;99.90;;;;;;4972074;28;20959;-67
2024/01/13 12:46:38;;;;;;;16.23;8.57;;;4.20;99.90;;;;;;4963299;28;24510;-67
2024/01/13 12:49:13;;;;;;;16.47;8.97;;;4.20;99.90;;;;;;4984764;28;20224;-67
2024/01/13 12:51:44;;;;;;;15.03;8.20;;;4.20;99.90;;;;;;4968016;28;20226;-67
2024/01/13 12:54:13;;;;;;;16.90;8.33;;;2.30;99.90;;;;;;4997217;28;20226;-67
2024/01/13 12:56:40;;;;;;;16.40;7.97;;;4.60;99.90;;;;;;4983220;28;20264;-68
2024/01/13 12:59:12;;;;;;;12.90;7.50;;;4.70;99.90;;;;;;4990416;28;20632;-68
2024/01/13 13:01:39;;;;;;;18.10;8.40;;;4.40;99.90;;;;;;4936111;28;20731;-68
2024/01/13 13:04:06;;;;;;;18.50;7.30;;;4.20;99.90;;;;;;4970845;28;20226;-69
2024/01/13 13:06:48;;;;;;;14.83;7.77;;;4.30;99.90;;;;;;4978836;28;20210;-68
2024/01/13 13:09:15;;;;;;;11.80;7.40;;;4.30;99.90;;;;;;4987411;28;20198;-67
2024/01/13 13:11:41;;;;;;;13.83;6.77;;;4.20;99.90;;;;;;4970230;28;20555;-67